sensor_id;sensor_type;location;lat;lon;timestamp;P1;durP1;ratioP1;P2;durP2;ratioP2
69627;SDS011;56850;51.984;5.088;2023-01-29T00:01:55;26.83;;;14.18;;
69627;SDS011;56850;51.984;5.088;2023-01-29T00:04:22;22.00;;;13.18;;
69627;SDS011;56850;51.984;5.088;2023-01-29T00:06:49;25.63;;;13.93;;
69627;SDS011;56850;51.984;5.088;2023-01-29T00:09:16;21.77;;;13.47;;
69627;SDS011;56850;51.984;5.088;2023-01-29T00:11:43;24.13;;;12.88;;
69627;SDS011;56850;51.984;5.088;2023-01-29T00:14:10;23.02;;;13.40;;
69627;SDS011;56850;51.984;5.088;2023-01-29T00:16:37;22.27;;;12.93;;
69627;SDS011;56850;51.984;5.088;2023-01-29T00:19:04;22.38;;;13.77;;
69627;SDS011;56850;51.984;5.088;2023-01-29T00:21:31;22.40;;;13.33;;
69627;SDS011;56850;51.984;5.088;2023-01-29T00:23:58;23.85;;;13.65;;
69627;SDS011;56850;51.984;5.088;2023-01-29T00:26:26;22.20;;;13.65;;
69627;SDS011;56850;51.984;5.088;2023-01-29T00:28:53;22.42;;;13.38;;
69627;SDS011;56850;51.984;5.088;2023-01-29T00:31:22;21.42;;;13.45;;
69627;SDS011;56850;51.984;5.088;2023-01-29T00:33:50;24.37;;;13.83;;
69627;SDS011;56850;51.984;5.088;2023-01-29T00:36:18;24.02;;;13.27;;
69627;SDS011;56850;51.984;5.088;2023-01-29T00:38:46;23.10;;;13.70;;
69627;SDS011;56850;51.984;5.088;2023-01-29T00:41:21;24.38;;;13.63;;
69627;SDS011;56850;51.984;5.088;2023-01-29T00:44:07;23.65;;;13.15;;
69627;SDS011;56850;51.984;5.088;2023-01-29T00:46:52;24.23;;;13.47;;
69627;SDS011;56850;51.984;5.088;2023-01-29T00:49:20;22.63;;;14.00;;
69627;SDS011;56850;51.984;5.088;2023-01-29T00:51:47;21.70;;;13.75;;
69627;SDS011;56850;51.984;5.088;2023-01-29T00:54:34;22.30;;;13.02;;
69627;SDS011;56850;51.984;5.088;2023-01-29T00:57:01;24.92;;;13.80;;
69627;SDS011;56850;51.984;5.088;2023-01-29T00:59:30;18.57;;;11.60;;
69627;SDS011;56850;51.984;5.088;2023-01-29T01:01:57;22.13;;;12.80;;
69627;SDS011;56850;51.984;5.088;2023-01-29T01:04:42;23.25;;;14.05;;
69627;SDS011;56850;51.984;5.088;2023-01-29T01:07:09;22.30;;;13.88;;
69627;SDS011;56850;51.984;5.088;2023-01-29T01:09:35;24.20;;;14.33;;
69627;SDS011;56850;51.984;5.088;2023-01-29T01:12:21;23.60;;;14.35;;
69627;SDS011;56850;51.984;5.088;2023-01-29T01:14:48;24.73;;;13.88;;
69627;SDS011;56850;51.984;5.088;2023-01-29T01:17:15;21.45;;;13.18;;
69627;SDS011;56850;51.984;5.088;2023-01-29T01:19:42;22.73;;;13.03;;
69627;SDS011;56850;51.984;5.088;2023-01-29T01:22:09;21.63;;;13.02;;
69627;SDS011;56850;51.984;5.088;2023-01-29T01:24:36;21.58;;;13.10;;
69627;SDS011;56850;51.984;5.088;2023-01-29T01:27:04;20.55;;;13.45;;
69627;SDS011;56850;51.984;5.088;2023-01-29T01:29:32;25.65;;;14.35;;
69627;SDS011;56850;51.984;5.088;2023-01-29T01:31:58;22.87;;;13.53;;
69627;SDS011;56850;51.984;5.088;2023-01-29T01:34:25;22.55;;;13.30;;
69627;SDS011;56850;51.984;5.088;2023-01-29T01:36:54;22.23;;;13.57;;
69627;SDS011;56850;51.984;5.088;2023-01-29T01:39:22;21.58;;;12.73;;
69627;SDS011;56850;51.984;5.088;2023-01-29T01:41:50;22.05;;;13.70;;
69627;SDS011;56850;51.984;5.088;2023-01-29T01:47:23;22.23;;;12.95;;
69627;SDS011;56850;51.984;5.088;2023-01-29T01:49:58;22.58;;;14.25;;
69627;SDS011;56850;51.984;5.088;2023-01-29T01:52:33;20.75;;;13.40;;
69627;SDS011;56850;51.984;5.088;2023-01-29T01:55:03;25.52;;;14.15;;
69627;SDS011;56850;51.984;5.088;2023-01-29T01:57:32;20.53;;;13.17;;
69627;SDS011;56850;51.984;5.088;2023-01-29T02:00:09;20.20;;;12.57;;
69627;SDS011;56850;51.984;5.088;2023-01-29T02:02:40;23.65;;;14.05;;
69627;SDS011;56850;51.984;5.088;2023-01-29T02:05:28;20.70;;;13.23;;
69627;SDS011;56850;51.984;5.088;2023-01-29T02:08:23;22.55;;;13.63;;
69627;SDS011;56850;51.984;5.088;2023-01-29T02:11:25;23.30;;;13.97;;
69627;SDS011;56850;51.984;5.088;2023-01-29T02:13:52;22.83;;;14.10;;
69627;SDS011;56850;51.984;5.088;2023-01-29T02:16:24;30.20;;;14.63;;
69627;SDS011;56850;51.984;5.088;2023-01-29T02:18:51;23.30;;;14.00;;
69627;SDS011;56850;51.984;5.088;2023-01-29T02:21:19;25.33;;;15.02;;
69627;SDS011;56850;51.984;5.088;2023-01-29T02:30:02;20.75;;;12.85;;
69627;SDS011;56850;51.984;5.088;2023-01-29T02:32:37;26.40;;;15.70;;
69627;SDS011;56850;51.984;5.088;2023-01-29T02:35:31;28.20;;;15.00;;
69627;SDS011;56850;51.984;5.088;2023-01-29T02:38:15;23.70;;;14.07;;
69627;SDS011;56850;51.984;5.088;2023-01-29T02:41:00;25.25;;;15.20;;
69627;SDS011;56850;51.984;5.088;2023-01-29T02:57:00;27.13;;;15.80;;
69627;SDS011;56850;51.984;5.088;2023-01-29T02:59:39;23.58;;;14.88;;
69627;SDS011;56850;51.984;5.088;2023-01-29T03:02:23;26.65;;;15.27;;
69627;SDS011;56850;51.984;5.088;2023-01-29T03:04:59;24.17;;;14.80;;
69627;SDS011;56850;51.984;5.088;2023-01-29T03:07:31;26.85;;;15.10;;
69627;SDS011;56850;51.984;5.088;2023-01-29T03:10:23;26.00;;;15.52;;
69627;SDS011;56850;51.984;5.088;2023-01-29T03:12:59;24.85;;;15.05;;
69627;SDS011;56850;51.984;5.088;2023-01-29T03:15:32;25.48;;;14.25;;
69627;SDS011;56850;51.984;5.088;2023-01-29T03:18:36;27.13;;;13.97;;
69627;SDS011;56850;51.984;5.088;2023-01-29T03:21:16;24.38;;;14.43;;
69627;SDS011;56850;51.984;5.088;2023-01-29T03:24:07;27.67;;;14.95;;
69627;SDS011;56850;51.984;5.088;2023-01-29T03:26:56;25.40;;;16.33;;
69627;SDS011;56850;51.984;5.088;2023-01-29T03:29:45;26.75;;;15.40;;
69627;SDS011;56850;51.984;5.088;2023-01-29T03:32:53;25.10;;;15.40;;
69627;SDS011;56850;51.984;5.088;2023-01-29T03:35:25;28.75;;;15.40;;
69627;SDS011;56850;51.984;5.088;2023-01-29T03:38:03;26.02;;;16.65;;
69627;SDS011;56850;51.984;5.088;2023-01-29T03:40:34;26.02;;;15.75;;
69627;SDS011;56850;51.984;5.088;2023-01-29T03:43:19;26.25;;;14.77;;
69627;SDS011;56850;51.984;5.088;2023-01-29T03:46:02;25.53;;;15.43;;
69627;SDS011;56850;51.984;5.088;2023-01-29T03:48:37;25.77;;;15.45;;
69627;SDS011;56850;51.984;5.088;2023-01-29T03:51:20;28.73;;;15.82;;
69627;SDS011;56850;51.984;5.088;2023-01-29T03:53:58;25.55;;;15.77;;
69627;SDS011;56850;51.984;5.088;2023-01-29T03:56:50;24.88;;;15.02;;
69627;SDS011;56850;51.984;5.088;2023-01-29T03:59:40;25.20;;;15.87;;
69627;SDS011;56850;51.984;5.088;2023-01-29T04:02:24;26.63;;;15.07;;
69627;SDS011;56850;51.984;5.088;2023-01-29T04:05:08;25.48;;;14.73;;
69627;SDS011;56850;51.984;5.088;2023-01-29T04:07:56;26.45;;;15.75;;
69627;SDS011;56850;51.984;5.088;2023-01-29T04:10:30;26.05;;;15.65;;
69627;SDS011;56850;51.984;5.088;2023-01-29T04:13:08;25.53;;;14.13;;
69627;SDS011;56850;51.984;5.088;2023-01-29T04:15:49;23.15;;;13.98;;
69627;SDS011;56850;51.984;5.088;2023-01-29T04:18:36;27.23;;;16.33;;
69627;SDS011;56850;51.984;5.088;2023-01-29T04:21:06;26.95;;;15.65;;
69627;SDS011;56850;51.984;5.088;2023-01-29T04:23:34;28.40;;;15.43;;
69627;SDS011;56850;51.984;5.088;2023-01-29T04:40:50;25.23;;;15.33;;
69627;SDS011;56850;51.984;5.088;2023-01-29T04:46:15;25.70;;;15.88;;
69627;SDS011;56850;51.984;5.088;2023-01-29T04:51:31;26.10;;;15.50;;
69627;SDS011;56850;51.984;5.088;2023-01-29T04:57:10;27.98;;;15.13;;
69627;SDS011;56850;51.984;5.088;2023-01-29T04:59:47;24.55;;;15.50;;
69627;SDS011;56850;51.984;5.088;2023-01-29T05:02:22;26.92;;;15.32;;
69627;SDS011;56850;51.984;5.088;2023-01-29T05:04:51;27.25;;;15.80;;
69627;SDS011;56850;51.984;5.088;2023-01-29T05:07:20;23.53;;;15.80;;
69627;SDS011;56850;51.984;5.088;2023-01-29T05:09:49;24.05;;;16.13;;
69627;SDS011;56850;51.984;5.088;2023-01-29T05:12:17;27.42;;;16.50;;
69627;SDS011;56850;51.984;5.088;2023-01-29T05:14:44;27.92;;;16.20;;
69627;SDS011;56850;51.984;5.088;2023-01-29T05:17:17;25.88;;;15.20;;
69627;SDS011;56850;51.984;5.088;2023-01-29T05:19:45;28.27;;;16.60;;
69627;SDS011;56850;51.984;5.088;2023-01-29T05:22:14;25.63;;;16.00;;
69627;SDS011;56850;51.984;5.088;2023-01-29T05:24:43;26.05;;;15.93;;
69627;SDS011;56850;51.984;5.088;2023-01-29T05:27:20;23.30;;;14.73;;
69627;SDS011;56850;51.984;5.088;2023-01-29T05:30:09;25.42;;;15.90;;
69627;SDS011;56850;51.984;5.088;2023-01-29T05:32:36;27.97;;;16.90;;
69627;SDS011;56850;51.984;5.088;2023-01-29T05:35:05;27.67;;;15.68;;
69627;SDS011;56850;51.984;5.088;2023-01-29T05:37:32;27.38;;;16.83;;
69627;SDS011;56850;51.984;5.088;2023-01-29T05:39:59;25.13;;;16.15;;
69627;SDS011;56850;51.984;5.088;2023-01-29T05:42:25;24.60;;;14.07;;
69627;SDS011;56850;51.984;5.088;2023-01-29T05:44:52;24.57;;;15.33;;
69627;SDS011;56850;51.984;5.088;2023-01-29T05:47:19;25.75;;;15.35;;
69627;SDS011;56850;51.984;5.088;2023-01-29T05:49:46;24.98;;;15.82;;
69627;SDS011;56850;51.984;5.088;2023-01-29T05:52:13;23.75;;;14.90;;
69627;SDS011;56850;51.984;5.088;2023-01-29T05:54:40;24.35;;;15.23;;
69627;SDS011;56850;51.984;5.088;2023-01-29T05:57:08;28.23;;;15.57;;
69627;SDS011;56850;51.984;5.088;2023-01-29T05:59:35;25.33;;;15.65;;
69627;SDS011;56850;51.984;5.088;2023-01-29T06:02:02;23.50;;;15.20;;
69627;SDS011;56850;51.984;5.088;2023-01-29T06:04:29;23.02;;;15.07;;
69627;SDS011;56850;51.984;5.088;2023-01-29T06:06:56;24.27;;;15.38;;
69627;SDS011;56850;51.984;5.088;2023-01-29T06:09:23;23.00;;;13.63;;
69627;SDS011;56850;51.984;5.088;2023-01-29T06:11:50;23.65;;;13.27;;
69627;SDS011;56850;51.984;5.088;2023-01-29T06:14:17;23.90;;;15.32;;
69627;SDS011;56850;51.984;5.088;2023-01-29T06:16:43;25.27;;;15.35;;
69627;SDS011;56850;51.984;5.088;2023-01-29T06:19:11;25.17;;;16.33;;
69627;SDS011;56850;51.984;5.088;2023-01-29T06:21:37;24.97;;;14.23;;
69627;SDS011;56850;51.984;5.088;2023-01-29T06:24:04;24.17;;;14.02;;
69627;SDS011;56850;51.984;5.088;2023-01-29T06:26:32;27.25;;;17.05;;
69627;SDS011;56850;51.984;5.088;2023-01-29T06:28:58;24.02;;;14.52;;
69627;SDS011;56850;51.984;5.088;2023-01-29T06:31:25;22.90;;;15.18;;
69627;SDS011;56850;51.984;5.088;2023-01-29T06:34:07;25.67;;;14.57;;
69627;SDS011;56850;51.984;5.088;2023-01-29T06:36:35;20.33;;;13.13;;
69627;SDS011;56850;51.984;5.088;2023-01-29T06:39:02;24.02;;;14.63;;
69627;SDS011;56850;51.984;5.088;2023-01-29T06:41:29;26.17;;;15.05;;
69627;SDS011;56850;51.984;5.088;2023-01-29T06:43:56;21.23;;;13.60;;
69627;SDS011;56850;51.984;5.088;2023-01-29T06:46:23;22.43;;;13.87;;
69627;SDS011;56850;51.984;5.088;2023-01-29T06:48:50;22.77;;;14.02;;
69627;SDS011;56850;51.984;5.088;2023-01-29T06:51:17;22.83;;;13.90;;
69627;SDS011;56850;51.984;5.088;2023-01-29T06:53:44;20.70;;;13.38;;
69627;SDS011;56850;51.984;5.088;2023-01-29T06:56:12;22.90;;;14.32;;
69627;SDS011;56850;51.984;5.088;2023-01-29T06:58:39;21.57;;;13.67;;
69627;SDS011;56850;51.984;5.088;2023-01-29T07:01:07;24.77;;;14.23;;
69627;SDS011;56850;51.984;5.088;2023-01-29T07:03:37;21.88;;;13.55;;
69627;SDS011;56850;51.984;5.088;2023-01-29T07:06:06;20.77;;;13.52;;
69627;SDS011;56850;51.984;5.088;2023-01-29T07:08:37;23.25;;;13.43;;
69627;SDS011;56850;51.984;5.088;2023-01-29T07:11:04;20.87;;;13.57;;
69627;SDS011;56850;51.984;5.088;2023-01-29T07:13:32;21.35;;;12.95;;
69627;SDS011;56850;51.984;5.088;2023-01-29T07:15:59;24.77;;;14.02;;
69627;SDS011;56850;51.984;5.088;2023-01-29T07:18:27;23.55;;;13.80;;
69627;SDS011;56850;51.984;5.088;2023-01-29T07:20:55;23.35;;;13.45;;
69627;SDS011;56850;51.984;5.088;2023-01-29T07:23:23;23.97;;;13.63;;
69627;SDS011;56850;51.984;5.088;2023-01-29T07:25:50;21.55;;;13.45;;
69627;SDS011;56850;51.984;5.088;2023-01-29T07:28:17;23.80;;;14.02;;
69627;SDS011;56850;51.984;5.088;2023-01-29T07:30:45;24.58;;;14.35;;
69627;SDS011;56850;51.984;5.088;2023-01-29T07:33:13;21.85;;;13.77;;
69627;SDS011;56850;51.984;5.088;2023-01-29T07:35:40;21.70;;;13.47;;
69627;SDS011;56850;51.984;5.088;2023-01-29T07:38:08;20.85;;;12.80;;
69627;SDS011;56850;51.984;5.088;2023-01-29T07:40:36;17.58;;;10.77;;
69627;SDS011;56850;51.984;5.088;2023-01-29T07:43:04;21.33;;;11.90;;
69627;SDS011;56850;51.984;5.088;2023-01-29T07:45:33;22.85;;;15.00;;
69627;SDS011;56850;51.984;5.088;2023-01-29T07:48:02;24.93;;;14.10;;
69627;SDS011;56850;51.984;5.088;2023-01-29T07:50:30;23.15;;;13.98;;
69627;SDS011;56850;51.984;5.088;2023-01-29T07:52:58;22.30;;;14.52;;
69627;SDS011;56850;51.984;5.088;2023-01-29T07:55:26;23.45;;;14.57;;
69627;SDS011;56850;51.984;5.088;2023-01-29T07:57:56;23.85;;;14.98;;
69627;SDS011;56850;51.984;5.088;2023-01-29T08:00:25;26.83;;;14.47;;
69627;SDS011;56850;51.984;5.088;2023-01-29T08:03:00;23.77;;;14.30;;
69627;SDS011;56850;51.984;5.088;2023-01-29T08:05:29;41.20;;;20.58;;
69627;SDS011;56850;51.984;5.088;2023-01-29T08:07:55;37.03;;;19.05;;
69627;SDS011;56850;51.984;5.088;2023-01-29T08:10:32;21.02;;;12.57;;
69627;SDS011;56850;51.984;5.088;2023-01-29T08:13:03;22.77;;;14.30;;
69627;SDS011;56850;51.984;5.088;2023-01-29T08:15:32;21.95;;;13.73;;
69627;SDS011;56850;51.984;5.088;2023-01-29T08:18:01;21.95;;;13.80;;
69627;SDS011;56850;51.984;5.088;2023-01-29T08:20:29;23.60;;;13.63;;
69627;SDS011;56850;51.984;5.088;2023-01-29T08:23:04;23.80;;;14.43;;
69627;SDS011;56850;51.984;5.088;2023-01-29T08:25:32;21.23;;;14.07;;
69627;SDS011;56850;51.984;5.088;2023-01-29T08:28:00;21.35;;;14.43;;
69627;SDS011;56850;51.984;5.088;2023-01-29T08:30:28;24.38;;;14.13;;
69627;SDS011;56850;51.984;5.088;2023-01-29T08:32:57;22.52;;;13.38;;
69627;SDS011;56850;51.984;5.088;2023-01-29T08:35:24;23.30;;;13.77;;
69627;SDS011;56850;51.984;5.088;2023-01-29T08:37:55;23.00;;;13.77;;
69627;SDS011;56850;51.984;5.088;2023-01-29T08:40:27;23.60;;;13.23;;
69627;SDS011;56850;51.984;5.088;2023-01-29T08:42:57;20.75;;;12.98;;
69627;SDS011;56850;51.984;5.088;2023-01-29T08:45:28;20.33;;;12.75;;
69627;SDS011;56850;51.984;5.088;2023-01-29T08:47:55;18.23;;;10.80;;
69627;SDS011;56850;51.984;5.088;2023-01-29T08:50:23;21.73;;;13.53;;
69627;SDS011;56850;51.984;5.088;2023-01-29T08:52:49;22.35;;;13.52;;
69627;SDS011;56850;51.984;5.088;2023-01-29T08:55:16;20.75;;;13.07;;
69627;SDS011;56850;51.984;5.088;2023-01-29T08:57:44;21.23;;;13.55;;
69627;SDS011;56850;51.984;5.088;2023-01-29T09:00:11;18.73;;;12.70;;
69627;SDS011;56850;51.984;5.088;2023-01-29T09:02:38;20.47;;;12.80;;
69627;SDS011;56850;51.984;5.088;2023-01-29T09:05:06;17.23;;;10.35;;
69627;SDS011;56850;51.984;5.088;2023-01-29T09:07:33;23.02;;;14.07;;
69627;SDS011;56850;51.984;5.088;2023-01-29T09:10:00;21.67;;;11.95;;
69627;SDS011;56850;51.984;5.088;2023-01-29T09:12:28;21.92;;;13.60;;
69627;SDS011;56850;51.984;5.088;2023-01-29T09:14:55;23.77;;;13.73;;
69627;SDS011;56850;51.984;5.088;2023-01-29T09:17:22;18.10;;;10.95;;
69627;SDS011;56850;51.984;5.088;2023-01-29T09:19:49;21.13;;;14.38;;
69627;SDS011;56850;51.984;5.088;2023-01-29T09:22:18;23.50;;;14.02;;
69627;SDS011;56850;51.984;5.088;2023-01-29T09:24:46;20.10;;;13.68;;
69627;SDS011;56850;51.984;5.088;2023-01-29T09:27:12;18.27;;;12.53;;
69627;SDS011;56850;51.984;5.088;2023-01-29T09:29:39;20.60;;;12.25;;
69627;SDS011;56850;51.984;5.088;2023-01-29T09:32:06;15.48;;;11.23;;
69627;SDS011;56850;51.984;5.088;2023-01-29T09:34:33;22.98;;;14.07;;
69627;SDS011;56850;51.984;5.088;2023-01-29T09:37:00;25.38;;;14.15;;
69627;SDS011;56850;51.984;5.088;2023-01-29T09:39:27;24.80;;;13.37;;
69627;SDS011;56850;51.984;5.088;2023-01-29T09:47:20;22.90;;;13.75;;
69627;SDS011;56850;51.984;5.088;2023-01-29T09:49:51;22.77;;;13.55;;
69627;SDS011;56850;51.984;5.088;2023-01-29T09:52:25;22.77;;;12.77;;
69627;SDS011;56850;51.984;5.088;2023-01-29T09:55:05;22.23;;;14.30;;
69627;SDS011;56850;51.984;5.088;2023-01-29T09:57:40;24.20;;;14.40;;
69627;SDS011;56850;51.984;5.088;2023-01-29T10:00:39;19.70;;;12.75;;
69627;SDS011;56850;51.984;5.088;2023-01-29T10:03:28;27.58;;;15.40;;
69627;SDS011;56850;51.984;5.088;2023-01-29T10:18:13;23.25;;;13.15;;
69627;SDS011;56850;51.984;5.088;2023-01-29T10:26:00;27.80;;;14.50;;
69627;SDS011;56850;51.984;5.088;2023-01-29T10:31:12;23.60;;;16.10;;
69627;SDS011;56850;51.984;5.088;2023-01-29T10:33:45;24.47;;;13.27;;
69627;SDS011;56850;51.984;5.088;2023-01-29T10:36:46;22.35;;;14.23;;
69627;SDS011;56850;51.984;5.088;2023-01-29T10:39:18;25.50;;;14.70;;
69627;SDS011;56850;51.984;5.088;2023-01-29T10:44:50;25.73;;;16.48;;
69627;SDS011;56850;51.984;5.088;2023-01-29T10:58:58;27.67;;;17.60;;
69627;SDS011;56850;51.984;5.088;2023-01-29T11:01:30;27.43;;;14.53;;
69627;SDS011;56850;51.984;5.088;2023-01-29T11:04:08;30.00;;;16.15;;
69627;SDS011;56850;51.984;5.088;2023-01-29T11:06:39;28.38;;;16.38;;
69627;SDS011;56850;51.984;5.088;2023-01-29T11:11:53;29.77;;;17.83;;
69627;SDS011;56850;51.984;5.088;2023-01-29T11:14:23;25.77;;;14.93;;
69627;SDS011;56850;51.984;5.088;2023-01-29T11:17:13;30.10;;;17.02;;
69627;SDS011;56850;51.984;5.088;2023-01-29T11:19:45;25.55;;;16.38;;
69627;SDS011;56850;51.984;5.088;2023-01-29T11:22:14;26.00;;;15.50;;
69627;SDS011;56850;51.984;5.088;2023-01-29T11:24:46;30.55;;;18.95;;
69627;SDS011;56850;51.984;5.088;2023-01-29T11:27:47;28.03;;;16.20;;
69627;SDS011;56850;51.984;5.088;2023-01-29T11:30:26;24.92;;;15.85;;
69627;SDS011;56850;51.984;5.088;2023-01-29T11:35:44;32.65;;;16.67;;
69627;SDS011;56850;51.984;5.088;2023-01-29T11:40:42;30.07;;;16.63;;
69627;SDS011;56850;51.984;5.088;2023-01-29T11:43:17;27.83;;;17.02;;
69627;SDS011;56850;51.984;5.088;2023-01-29T11:45:50;25.70;;;17.23;;
69627;SDS011;56850;51.984;5.088;2023-01-29T11:48:26;28.58;;;17.17;;
69627;SDS011;56850;51.984;5.088;2023-01-29T11:51:06;30.10;;;17.65;;
69627;SDS011;56850;51.984;5.088;2023-01-29T11:53:39;25.40;;;16.17;;
69627;SDS011;56850;51.984;5.088;2023-01-29T11:56:14;31.17;;;17.15;;
69627;SDS011;56850;51.984;5.088;2023-01-29T11:58:58;32.97;;;16.83;;
69627;SDS011;56850;51.984;5.088;2023-01-29T12:01:31;28.45;;;16.30;;
69627;SDS011;56850;51.984;5.088;2023-01-29T12:04:08;26.58;;;16.30;;
69627;SDS011;56850;51.984;5.088;2023-01-29T12:06:47;30.93;;;17.50;;
69627;SDS011;56850;51.984;5.088;2023-01-29T12:09:25;27.88;;;17.80;;
69627;SDS011;56850;51.984;5.088;2023-01-29T12:11:54;31.58;;;19.52;;
69627;SDS011;56850;51.984;5.088;2023-01-29T12:14:28;29.35;;;17.77;;
69627;SDS011;56850;51.984;5.088;2023-01-29T12:17:05;26.25;;;17.63;;
69627;SDS011;56850;51.984;5.088;2023-01-29T12:19:35;27.97;;;17.43;;
69627;SDS011;56850;51.984;5.088;2023-01-29T12:24:55;28.33;;;17.88;;
69627;SDS011;56850;51.984;5.088;2023-01-29T12:27:59;28.13;;;18.33;;
69627;SDS011;56850;51.984;5.088;2023-01-29T12:30:37;27.52;;;17.77;;
69627;SDS011;56850;51.984;5.088;2023-01-29T12:33:28;32.50;;;18.77;;
69627;SDS011;56850;51.984;5.088;2023-01-29T12:36:18;29.38;;;16.63;;
69627;SDS011;56850;51.984;5.088;2023-01-29T12:38:47;32.03;;;20.25;;
69627;SDS011;56850;51.984;5.088;2023-01-29T12:41:23;31.25;;;18.92;;
69627;SDS011;56850;51.984;5.088;2023-01-29T12:43:56;29.35;;;17.65;;
69627;SDS011;56850;51.984;5.088;2023-01-29T12:46:41;29.57;;;17.37;;
69627;SDS011;56850;51.984;5.088;2023-01-29T12:49:13;30.88;;;19.45;;
69627;SDS011;56850;51.984;5.088;2023-01-29T12:51:49;28.60;;;18.15;;
69627;SDS011;56850;51.984;5.088;2023-01-29T12:54:24;29.63;;;18.58;;
69627;SDS011;56850;51.984;5.088;2023-01-29T12:56:58;28.35;;;17.90;;
69627;SDS011;56850;51.984;5.088;2023-01-29T12:59:36;25.60;;;15.60;;
69627;SDS011;56850;51.984;5.088;2023-01-29T13:04:55;30.33;;;17.48;;
69627;SDS011;56850;51.984;5.088;2023-01-29T13:07:33;28.02;;;17.35;;
69627;SDS011;56850;51.984;5.088;2023-01-29T13:10:08;27.85;;;17.10;;
69627;SDS011;56850;51.984;5.088;2023-01-29T13:12:39;28.00;;;18.37;;
69627;SDS011;56850;51.984;5.088;2023-01-29T13:15:14;24.27;;;15.73;;
69627;SDS011;56850;51.984;5.088;2023-01-29T13:17:53;26.17;;;17.35;;
69627;SDS011;56850;51.984;5.088;2023-01-29T13:20:28;26.60;;;16.38;;
69627;SDS011;56850;51.984;5.088;2023-01-29T13:23:14;25.75;;;16.70;;
69627;SDS011;56850;51.984;5.088;2023-01-29T13:25:48;23.13;;;15.23;;
69627;SDS011;56850;51.984;5.088;2023-01-29T13:28:17;27.30;;;15.55;;
69627;SDS011;56850;51.984;5.088;2023-01-29T13:31:08;24.50;;;16.55;;
69627;SDS011;56850;51.984;5.088;2023-01-29T13:33:40;21.80;;;14.00;;
69627;SDS011;56850;51.984;5.088;2023-01-29T13:36:15;27.27;;;16.40;;
69627;SDS011;56850;51.984;5.088;2023-01-29T13:38:48;24.40;;;14.97;;
69627;SDS011;56850;51.984;5.088;2023-01-29T13:41:40;20.55;;;15.15;;
69627;SDS011;56850;51.984;5.088;2023-01-29T13:44:19;24.95;;;15.35;;
69627;SDS011;56850;51.984;5.088;2023-01-29T13:46:55;25.83;;;15.77;;
69627;SDS011;56850;51.984;5.088;2023-01-29T13:49:25;25.65;;;16.50;;
69627;SDS011;56850;51.984;5.088;2023-01-29T13:52:12;23.87;;;14.00;;
69627;SDS011;56850;51.984;5.088;2023-01-29T13:54:40;24.25;;;16.00;;
69627;SDS011;56850;51.984;5.088;2023-01-29T14:00:05;24.50;;;16.88;;
69627;SDS011;56850;51.984;5.088;2023-01-29T14:08:00;26.15;;;15.73;;
69627;SDS011;56850;51.984;5.088;2023-01-29T14:10:40;26.88;;;15.68;;
69627;SDS011;56850;51.984;5.088;2023-01-29T14:15:44;26.52;;;16.58;;
69627;SDS011;56850;51.984;5.088;2023-01-29T14:18:32;23.83;;;15.40;;
69627;SDS011;56850;51.984;5.088;2023-01-29T14:28:56;22.92;;;15.68;;
69627;SDS011;56850;51.984;5.088;2023-01-29T14:32:08;25.73;;;15.33;;
69627;SDS011;56850;51.984;5.088;2023-01-29T14:34:30;25.98;;;16.75;;
69627;SDS011;56850;51.984;5.088;2023-01-29T14:37:14;30.45;;;17.08;;
69627;SDS011;56850;51.984;5.088;2023-01-29T14:39:54;28.77;;;16.27;;
69627;SDS011;56850;51.984;5.088;2023-01-29T14:42:27;22.83;;;15.48;;
69627;SDS011;56850;51.984;5.088;2023-01-29T14:52:47;27.13;;;15.82;;
69627;SDS011;56850;51.984;5.088;2023-01-29T14:55:25;26.40;;;15.63;;
69627;SDS011;56850;51.984;5.088;2023-01-29T14:58:00;28.43;;;16.63;;
69627;SDS011;56850;51.984;5.088;2023-01-29T15:00:29;26.20;;;16.10;;
69627;SDS011;56850;51.984;5.088;2023-01-29T15:03:01;28.35;;;17.25;;
69627;SDS011;56850;51.984;5.088;2023-01-29T15:05:37;23.40;;;15.90;;
69627;SDS011;56850;51.984;5.088;2023-01-29T15:08:07;26.38;;;17.05;;
69627;SDS011;56850;51.984;5.088;2023-01-29T15:10:56;21.03;;;15.23;;
69627;SDS011;56850;51.984;5.088;2023-01-29T15:13:47;24.33;;;15.82;;
69627;SDS011;56850;51.984;5.088;2023-01-29T15:16:34;21.60;;;14.18;;
69627;SDS011;56850;51.984;5.088;2023-01-29T15:19:24;26.73;;;15.45;;
69627;SDS011;56850;51.984;5.088;2023-01-29T15:24:42;25.33;;;14.87;;
69627;SDS011;56850;51.984;5.088;2023-01-29T15:27:17;17.88;;;9.15;;
69627;SDS011;56850;51.984;5.088;2023-01-29T15:29:49;24.00;;;13.70;;
69627;SDS011;56850;51.984;5.088;2023-01-29T15:32:31;22.85;;;13.48;;
69627;SDS011;56850;51.984;5.088;2023-01-29T15:35:05;21.90;;;13.80;;
69627;SDS011;56850;51.984;5.088;2023-01-29T15:37:58;24.43;;;14.67;;
69627;SDS011;56850;51.984;5.088;2023-01-29T15:40:57;22.45;;;13.55;;
69627;SDS011;56850;51.984;5.088;2023-01-29T15:43:33;21.48;;;12.65;;
69627;SDS011;56850;51.984;5.088;2023-01-29T15:46:14;18.95;;;11.43;;
69627;SDS011;56850;51.984;5.088;2023-01-29T15:48:48;22.60;;;13.30;;
69627;SDS011;56850;51.984;5.088;2023-01-29T15:51:16;21.47;;;13.30;;
69627;SDS011;56850;51.984;5.088;2023-01-29T15:53:52;27.30;;;15.00;;
69627;SDS011;56850;51.984;5.088;2023-01-29T15:58:59;23.67;;;14.15;;
69627;SDS011;56850;51.984;5.088;2023-01-29T16:01:35;23.58;;;14.88;;
69627;SDS011;56850;51.984;5.088;2023-01-29T16:04:02;24.30;;;14.10;;
69627;SDS011;56850;51.984;5.088;2023-01-29T16:06:35;24.98;;;15.90;;
69627;SDS011;56850;51.984;5.088;2023-01-29T16:09:03;26.88;;;15.57;;
69627;SDS011;56850;51.984;5.088;2023-01-29T16:11:31;25.83;;;15.13;;
69627;SDS011;56850;51.984;5.088;2023-01-29T16:14:00;25.27;;;14.77;;
69627;SDS011;56850;51.984;5.088;2023-01-29T16:16:28;22.57;;;13.73;;
69627;SDS011;56850;51.984;5.088;2023-01-29T16:18:55;23.45;;;13.82;;
69627;SDS011;56850;51.984;5.088;2023-01-29T16:21:31;19.15;;;12.25;;
69627;SDS011;56850;51.984;5.088;2023-01-29T16:24:07;28.33;;;16.17;;
69627;SDS011;56850;51.984;5.088;2023-01-29T16:26:44;23.45;;;15.48;;
69627;SDS011;56850;51.984;5.088;2023-01-29T16:29:17;21.10;;;13.90;;
69627;SDS011;56850;51.984;5.088;2023-01-29T16:31:49;24.33;;;14.00;;
69627;SDS011;56850;51.984;5.088;2023-01-29T16:34:23;23.30;;;14.05;;
69627;SDS011;56850;51.984;5.088;2023-01-29T16:36:53;26.60;;;14.88;;
69627;SDS011;56850;51.984;5.088;2023-01-29T16:39:25;22.27;;;11.88;;
69627;SDS011;56850;51.984;5.088;2023-01-29T16:45:01;32.80;;;16.35;;
69627;SDS011;56850;51.984;5.088;2023-01-29T16:47:33;31.77;;;17.33;;
69627;SDS011;56850;51.984;5.088;2023-01-29T16:52:53;27.45;;;16.40;;
69627;SDS011;56850;51.984;5.088;2023-01-29T16:55:23;27.00;;;15.10;;
69627;SDS011;56850;51.984;5.088;2023-01-29T16:57:51;25.98;;;15.18;;
69627;SDS011;56850;51.984;5.088;2023-01-29T17:00:26;23.05;;;13.57;;
69627;SDS011;56850;51.984;5.088;2023-01-29T17:02:59;29.95;;;16.67;;
69627;SDS011;56850;51.984;5.088;2023-01-29T17:05:30;28.10;;;16.38;;
69627;SDS011;56850;51.984;5.088;2023-01-29T17:08:00;31.83;;;17.53;;
69627;SDS011;56850;51.984;5.088;2023-01-29T17:10:28;32.22;;;16.70;;
69627;SDS011;56850;51.984;5.088;2023-01-29T17:12:56;28.23;;;16.95;;
69627;SDS011;56850;51.984;5.088;2023-01-29T17:20:42;29.20;;;16.33;;